sensor_id;sensor_type;location;lat;lon;timestamp;temperature;humidity
843;DHT22;407;48.884;9.126;2023-04-03T00:01:14;6.30;1.00
843;DHT22;407;48.884;9.126;2023-04-03T00:03:39;5.40;1.00
843;DHT22;407;48.884;9.126;2023-04-03T00:06:07;5.20;1.00
843;DHT22;407;48.884;9.126;2023-04-03T00:08:35;5.90;1.00
843;DHT22;407;48.884;9.126;2023-04-03T00:11:03;5.20;1.00
843;DHT22;407;48.884;9.126;2023-04-03T00:13:29;5.20;1.00
843;DHT22;407;48.884;9.126;2023-04-03T00:15:55;5.10;1.00
843;DHT22;407;48.884;9.126;2023-04-03T00:18:21;5.10;1.00
843;DHT22;407;48.884;9.126;2023-04-03T00:20:47;6.40;1.00
843;DHT22;407;48.884;9.126;2023-04-03T00:23:13;6.40;1.00
843;DHT22;407;48.884;9.126;2023-04-03T00:25:38;6.00;1.00
843;DHT22;407;48.884;9.126;2023-04-03T00:28:05;5.30;1.00
843;DHT22;407;48.884;9.126;2023-04-03T00:30:31;6.10;1.00
843;DHT22;407;48.884;9.126;2023-04-03T00:32:57;5.10;1.00
843;DHT22;407;48.884;9.126;2023-04-03T00:35:24;5.20;1.00
843;DHT22;407;48.884;9.126;2023-04-03T00:37:54;5.60;1.00
843;DHT22;407;48.884;9.126;2023-04-03T00:40:25;5.30;1.00
843;DHT22;407;48.884;9.126;2023-04-03T00:42:57;5.20;1.00
843;DHT22;407;48.884;9.126;2023-04-03T00:45:44;5.20;1.00
843;DHT22;407;48.884;9.126;2023-04-03T00:48:18;5.20;1.00
843;DHT22;407;48.884;9.126;2023-04-03T00:50:45;5.20;1.00
843;DHT22;407;48.884;9.126;2023-04-03T00:53:16;5.20;1.00
843;DHT22;407;48.884;9.126;2023-04-03T00:55:44;5.20;1.00
843;DHT22;407;48.884;9.126;2023-04-03T00:58:12;5.20;1.00
843;DHT22;407;48.884;9.126;2023-04-03T01:00:41;6.70;1.00
843;DHT22;407;48.884;9.126;2023-04-03T01:03:08;5.20;1.00
843;DHT22;407;48.884;9.126;2023-04-03T01:05:34;6.60;1.00
843;DHT22;407;48.884;9.126;2023-04-03T01:07:59;5.00;1.00
843;DHT22;407;48.884;9.126;2023-04-03T01:10:25;4.90;1.00
843;DHT22;407;48.884;9.126;2023-04-03T01:12:52;6.50;1.00
843;DHT22;407;48.884;9.126;2023-04-03T01:15:27;6.00;1.00
843;DHT22;407;48.884;9.126;2023-04-03T01:18:00;5.00;1.00
843;DHT22;407;48.884;9.126;2023-04-03T01:23:32;5.00;1.00
843;DHT22;407;48.884;9.126;2023-04-03T01:26:02;5.10;1.00
843;DHT22;407;48.884;9.126;2023-04-03T01:28:30;6.60;1.00
843;DHT22;407;48.884;9.126;2023-04-03T01:31:25;5.10;1.00
843;DHT22;407;48.884;9.126;2023-04-03T01:33:51;5.10;1.00
843;DHT22;407;48.884;9.126;2023-04-03T01:36:26;6.00;1.00
843;DHT22;407;48.884;9.126;2023-04-03T01:38:53;5.10;1.00
843;DHT22;407;48.884;9.126;2023-04-03T01:41:19;5.10;1.00
843;DHT22;407;48.884;9.126;2023-04-03T01:43:46;5.20;1.00
843;DHT22;407;48.884;9.126;2023-04-03T01:46:12;5.10;1.00
843;DHT22;407;48.884;9.126;2023-04-03T01:48:38;5.20;1.00
843;DHT22;407;48.884;9.126;2023-04-03T01:51:04;5.10;1.00
843;DHT22;407;48.884;9.126;2023-04-03T01:53:29;5.00;1.00
843;DHT22;407;48.884;9.126;2023-04-03T01:55:55;5.00;1.00
843;DHT22;407;48.884;9.126;2023-04-03T01:58:21;5.80;1.00
843;DHT22;407;48.884;9.126;2023-04-03T02:00:46;5.00;1.00
843;DHT22;407;48.884;9.126;2023-04-03T02:03:12;6.40;1.00
843;DHT22;407;48.884;9.126;2023-04-03T02:05:38;5.00;1.00
843;DHT22;407;48.884;9.126;2023-04-03T02:08:04;5.00;1.00
843;DHT22;407;48.884;9.126;2023-04-03T02:10:30;4.90;1.00
843;DHT22;407;48.884;9.126;2023-04-03T02:12:55;6.40;1.00
843;DHT22;407;48.884;9.126;2023-04-03T02:15:21;4.90;1.00
843;DHT22;407;48.884;9.126;2023-04-03T02:17:46;6.20;1.00
843;DHT22;407;48.884;9.126;2023-04-03T02:20:12;4.90;1.00
843;DHT22;407;48.884;9.126;2023-04-03T02:22:39;4.80;1.00
843;DHT22;407;48.884;9.126;2023-04-03T02:25:05;5.60;1.00
843;DHT22;407;48.884;9.126;2023-04-03T02:27:31;4.70;1.00
843;DHT22;407;48.884;9.126;2023-04-03T02:29:57;4.80;1.00
843;DHT22;407;48.884;9.126;2023-04-03T02:32:22;4.90;1.00
843;DHT22;407;48.884;9.126;2023-04-03T02:34:48;5.00;1.00
843;DHT22;407;48.884;9.126;2023-04-03T02:37:14;4.90;1.00
843;DHT22;407;48.884;9.126;2023-04-03T02:39:39;4.90;1.00
843;DHT22;407;48.884;9.126;2023-04-03T02:42:05;5.90;1.00
843;DHT22;407;48.884;9.126;2023-04-03T02:44:31;4.90;1.00
843;DHT22;407;48.884;9.126;2023-04-03T02:46:57;5.80;1.00
843;DHT22;407;48.884;9.126;2023-04-03T02:49:22;5.70;1.00
843;DHT22;407;48.884;9.126;2023-04-03T02:51:48;6.60;1.00
843;DHT22;407;48.884;9.126;2023-04-03T02:54:14;5.00;1.00
843;DHT22;407;48.884;9.126;2023-04-03T02:56:40;5.10;1.00
843;DHT22;407;48.884;9.126;2023-04-03T02:59:06;5.90;1.00
843;DHT22;407;48.884;9.126;2023-04-03T03:01:31;4.70;1.00
843;DHT22;407;48.884;9.126;2023-04-03T03:03:59;4.80;1.00
843;DHT22;407;48.884;9.126;2023-04-03T03:06:25;4.80;1.00
843;DHT22;407;48.884;9.126;2023-04-03T03:08:51;4.80;1.00
843;DHT22;407;48.884;9.126;2023-04-03T03:11:16;5.60;1.00
843;DHT22;407;48.884;9.126;2023-04-03T03:13:42;4.60;1.00
843;DHT22;407;48.884;9.126;2023-04-03T03:16:08;5.10;1.00
843;DHT22;407;48.884;9.126;2023-04-03T03:18:34;4.80;1.00
843;DHT22;407;48.884;9.126;2023-04-03T03:21:02;4.80;1.00
843;DHT22;407;48.884;9.126;2023-04-03T03:23:29;4.80;1.00
843;DHT22;407;48.884;9.126;2023-04-03T03:25:58;6.40;1.00
843;DHT22;407;48.884;9.126;2023-04-03T03:28:24;4.70;1.00
843;DHT22;407;48.884;9.126;2023-04-03T03:30:50;4.60;1.00
843;DHT22;407;48.884;9.126;2023-04-03T03:33:16;4.50;1.00
843;DHT22;407;48.884;9.126;2023-04-03T03:35:43;5.90;1.00
843;DHT22;407;48.884;9.126;2023-04-03T03:38:09;6.00;1.00
843;DHT22;407;48.884;9.126;2023-04-03T03:40:34;5.60;1.00
843;DHT22;407;48.884;9.126;2023-04-03T03:43:00;6.10;1.00
843;DHT22;407;48.884;9.126;2023-04-03T03:45:26;5.70;1.00
843;DHT22;407;48.884;9.126;2023-04-03T03:47:53;5.70;1.00
843;DHT22;407;48.884;9.126;2023-04-03T03:50:19;4.80;1.00
843;DHT22;407;48.884;9.126;2023-04-03T03:52:44;6.50;1.00
843;DHT22;407;48.884;9.126;2023-04-03T03:55:11;4.70;1.00
843;DHT22;407;48.884;9.126;2023-04-03T03:57:37;5.40;1.00
843;DHT22;407;48.884;9.126;2023-04-03T04:00:03;5.80;1.00
843;DHT22;407;48.884;9.126;2023-04-03T04:02:29;4.70;1.00
843;DHT22;407;48.884;9.126;2023-04-03T04:04:55;5.70;1.00
843;DHT22;407;48.884;9.126;2023-04-03T04:07:21;4.70;1.00
843;DHT22;407;48.884;9.126;2023-04-03T04:09:46;6.40;1.00
843;DHT22;407;48.884;9.126;2023-04-03T04:12:12;4.70;1.00
843;DHT22;407;48.884;9.126;2023-04-03T04:14:37;4.90;1.00
843;DHT22;407;48.884;9.126;2023-04-03T04:17:03;5.70;1.00
843;DHT22;407;48.884;9.126;2023-04-03T04:19:29;5.00;1.00
843;DHT22;407;48.884;9.126;2023-04-03T04:21:54;4.90;1.00
843;DHT22;407;48.884;9.126;2023-04-03T04:24:20;5.00;1.00
843;DHT22;407;48.884;9.126;2023-04-03T04:26:45;4.90;1.00
843;DHT22;407;48.884;9.126;2023-04-03T04:29:11;6.50;1.00
843;DHT22;407;48.884;9.126;2023-04-03T04:31:37;5.30;1.00
843;DHT22;407;48.884;9.126;2023-04-03T04:34:02;5.00;1.00
843;DHT22;407;48.884;9.126;2023-04-03T04:36:28;5.00;1.00
843;DHT22;407;48.884;9.126;2023-04-03T04:38:53;6.10;1.00
843;DHT22;407;48.884;9.126;2023-04-03T04:41:22;4.90;1.00
843;DHT22;407;48.884;9.126;2023-04-03T04:43:49;4.90;1.00
843;DHT22;407;48.884;9.126;2023-04-03T04:46:15;5.30;99.90
843;DHT22;407;48.884;9.126;2023-04-03T04:48:40;5.70;99.90
843;DHT22;407;48.884;9.126;2023-04-03T04:51:06;5.00;99.90
843;DHT22;407;48.884;9.126;2023-04-03T04:53:32;5.00;99.90
843;DHT22;407;48.884;9.126;2023-04-03T04:55:58;4.70;99.90
843;DHT22;407;48.884;9.126;2023-04-03T04:58:24;5.20;99.90
843;DHT22;407;48.884;9.126;2023-04-03T05:01:16;5.20;99.90
843;DHT22;407;48.884;9.126;2023-04-03T05:03:41;5.20;99.90
843;DHT22;407;48.884;9.126;2023-04-03T05:06:07;5.20;99.90
843;DHT22;407;48.884;9.126;2023-04-03T05:08:33;4.90;99.90
843;DHT22;407;48.884;9.126;2023-04-03T05:10:58;5.00;99.90
843;DHT22;407;48.884;9.126;2023-04-03T05:13:24;4.80;99.90
843;DHT22;407;48.884;9.126;2023-04-03T05:15:50;4.80;99.90
843;DHT22;407;48.884;9.126;2023-04-03T05:18:15;4.80;1.00
843;DHT22;407;48.884;9.126;2023-04-03T05:20:41;6.10;1.00
843;DHT22;407;48.884;9.126;2023-04-03T05:23:09;4.70;1.00
843;DHT22;407;48.884;9.126;2023-04-03T05:25:37;5.90;1.00
843;DHT22;407;48.884;9.126;2023-04-03T05:28:03;4.50;1.00
843;DHT22;407;48.884;9.126;2023-04-03T05:30:29;4.50;1.00
843;DHT22;407;48.884;9.126;2023-04-03T05:32:54;4.60;1.00
843;DHT22;407;48.884;9.126;2023-04-03T05:35:20;4.60;1.00
843;DHT22;407;48.884;9.126;2023-04-03T05:37:46;4.80;1.00
843;DHT22;407;48.884;9.126;2023-04-03T05:40:13;4.80;1.00
843;DHT22;407;48.884;9.126;2023-04-03T05:42:38;4.70;1.00
843;DHT22;407;48.884;9.126;2023-04-03T05:45:04;5.80;1.00
843;DHT22;407;48.884;9.126;2023-04-03T05:47:30;4.60;1.00
843;DHT22;407;48.884;9.126;2023-04-03T05:49:56;5.90;1.00
843;DHT22;407;48.884;9.126;2023-04-03T05:52:33;4.60;1.00
843;DHT22;407;48.884;9.126;2023-04-03T05:55:00;4.70;1.00
843;DHT22;407;48.884;9.126;2023-04-03T05:57:26;4.80;1.00
843;DHT22;407;48.884;9.126;2023-04-03T05:59:52;5.40;1.00
843;DHT22;407;48.884;9.126;2023-04-03T06:02:20;5.90;1.00
843;DHT22;407;48.884;9.126;2023-04-03T06:04:46;4.80;1.00
843;DHT22;407;48.884;9.126;2023-04-03T06:07:15;4.80;1.00
843;DHT22;407;48.884;9.126;2023-04-03T06:09:43;6.10;1.00
843;DHT22;407;48.884;9.126;2023-04-03T06:12:09;5.70;1.00
843;DHT22;407;48.884;9.126;2023-04-03T06:14:35;4.90;1.00
843;DHT22;407;48.884;9.126;2023-04-03T06:17:01;5.00;1.00
843;DHT22;407;48.884;9.126;2023-04-03T06:19:27;5.00;1.00
843;DHT22;407;48.884;9.126;2023-04-03T06:21:53;4.90;1.00
843;DHT22;407;48.884;9.126;2023-04-03T06:24:19;5.00;1.00
843;DHT22;407;48.884;9.126;2023-04-03T06:26:47;5.50;1.00
843;DHT22;407;48.884;9.126;2023-04-03T06:29:12;5.10;1.00
843;DHT22;407;48.884;9.126;2023-04-03T06:31:38;5.20;1.00
843;DHT22;407;48.884;9.126;2023-04-03T06:34:05;5.10;1.00
843;DHT22;407;48.884;9.126;2023-04-03T06:36:32;5.90;1.00
843;DHT22;407;48.884;9.126;2023-04-03T06:38:59;5.00;1.00
843;DHT22;407;48.884;9.126;2023-04-03T06:41:24;6.40;1.00
843;DHT22;407;48.884;9.126;2023-04-03T06:43:51;6.10;1.00
843;DHT22;407;48.884;9.126;2023-04-03T06:46:19;5.10;1.00
843;DHT22;407;48.884;9.126;2023-04-03T06:48:45;5.10;1.00
843;DHT22;407;48.884;9.126;2023-04-03T06:51:25;5.10;1.00
843;DHT22;407;48.884;9.126;2023-04-03T06:53:54;5.30;1.00
843;DHT22;407;48.884;9.126;2023-04-03T06:56:20;5.60;1.00
843;DHT22;407;48.884;9.126;2023-04-03T06:58:46;5.90;1.00
843;DHT22;407;48.884;9.126;2023-04-03T07:01:13;5.90;1.00
843;DHT22;407;48.884;9.126;2023-04-03T07:03:40;6.40;1.00
843;DHT22;407;48.884;9.126;2023-04-03T07:06:07;5.80;1.00
843;DHT22;407;48.884;9.126;2023-04-03T07:08:34;6.70;1.00
843;DHT22;407;48.884;9.126;2023-04-03T07:11:00;5.70;1.00
843;DHT22;407;48.884;9.126;2023-04-03T07:13:25;7.80;1.00
843;DHT22;407;48.884;9.126;2023-04-03T07:15:52;6.60;1.00
843;DHT22;407;48.884;9.126;2023-04-03T07:18:18;6.30;1.00
843;DHT22;407;48.884;9.126;2023-04-03T07:20:44;6.30;1.00
843;DHT22;407;48.884;9.126;2023-04-03T07:23:10;7.00;1.00
843;DHT22;407;48.884;9.126;2023-04-03T07:25:37;7.30;1.00
843;DHT22;407;48.884;9.126;2023-04-03T07:28:02;6.40;1.00
843;DHT22;407;48.884;9.126;2023-04-03T07:30:29;6.70;1.00
843;DHT22;407;48.884;9.126;2023-04-03T07:32:55;7.50;1.00
843;DHT22;407;48.884;9.126;2023-04-03T07:35:20;7.30;99.90
843;DHT22;407;48.884;9.126;2023-04-03T07:37:46;8.40;99.90
843;DHT22;407;48.884;9.126;2023-04-03T07:40:12;8.50;99.90
843;DHT22;407;48.884;9.126;2023-04-03T07:42:38;7.70;99.90
843;DHT22;407;48.884;9.126;2023-04-03T07:45:04;7.80;99.90
843;DHT22;407;48.884;9.126;2023-04-03T07:47:30;7.80;99.90
843;DHT22;407;48.884;9.126;2023-04-03T07:49:56;8.40;99.90
843;DHT22;407;48.884;9.126;2023-04-03T07:52:23;8.00;99.90
843;DHT22;407;48.884;9.126;2023-04-03T07:54:49;7.70;99.90
843;DHT22;407;48.884;9.126;2023-04-03T07:57:15;7.80;99.90
843;DHT22;407;48.884;9.126;2023-04-03T07:59:40;8.30;99.90
843;DHT22;407;48.884;9.126;2023-04-03T08:02:09;8.90;99.90
843;DHT22;407;48.884;9.126;2023-04-03T08:04:35;9.20;99.90
843;DHT22;407;48.884;9.126;2023-04-03T08:07:01;9.00;99.90
843;DHT22;407;48.884;9.126;2023-04-03T08:09:27;8.50;99.90
843;DHT22;407;48.884;9.126;2023-04-03T08:11:52;8.10;99.90
843;DHT22;407;48.884;9.126;2023-04-03T08:14:19;7.60;99.90
843;DHT22;407;48.884;9.126;2023-04-03T08:16:47;7.90;99.90
843;DHT22;407;48.884;9.126;2023-04-03T08:19:13;8.80;99.90
843;DHT22;407;48.884;9.126;2023-04-03T08:21:41;9.70;99.90
843;DHT22;407;48.884;9.126;2023-04-03T08:24:08;10.20;99.90
843;DHT22;407;48.884;9.126;2023-04-03T08:26:33;10.70;99.90
843;DHT22;407;48.884;9.126;2023-04-03T08:28:59;10.60;99.90
843;DHT22;407;48.884;9.126;2023-04-03T08:31:25;9.90;99.90
843;DHT22;407;48.884;9.126;2023-04-03T08:33:51;9.70;99.90
843;DHT22;407;48.884;9.126;2023-04-03T08:36:19;10.30;99.90
843;DHT22;407;48.884;9.126;2023-04-03T08:38:46;10.30;99.90
843;DHT22;407;48.884;9.126;2023-04-03T08:46:44;9.10;99.90
843;DHT22;407;48.884;9.126;2023-04-03T08:49:39;9.00;99.90
843;DHT22;407;48.884;9.126;2023-04-03T08:52:11;8.80;99.90
843;DHT22;407;48.884;9.126;2023-04-03T08:54:51;9.90;99.90
843;DHT22;407;48.884;9.126;2023-04-03T08:57:24;9.20;99.90
843;DHT22;407;48.884;9.126;2023-04-03T08:59:52;9.00;99.90
843;DHT22;407;48.884;9.126;2023-04-03T09:02:44;9.20;99.90
843;DHT22;407;48.884;9.126;2023-04-03T09:05:17;9.30;99.90
843;DHT22;407;48.884;9.126;2023-04-03T09:07:47;9.50;99.90
843;DHT22;407;48.884;9.126;2023-04-03T09:10:18;9.80;99.90
843;DHT22;407;48.884;9.126;2023-04-03T09:12:49;10.20;99.90
843;DHT22;407;48.884;9.126;2023-04-03T09:15:24;10.60;99.90
843;DHT22;407;48.884;9.126;2023-04-03T09:18:05;11.00;99.90
843;DHT22;407;48.884;9.126;2023-04-03T09:23:30;11.00;99.90
843;DHT22;407;48.884;9.126;2023-04-03T09:26:06;10.10;99.90
843;DHT22;407;48.884;9.126;2023-04-03T09:28:38;9.60;99.90
843;DHT22;407;48.884;9.126;2023-04-03T09:33:39;9.60;99.90
843;DHT22;407;48.884;9.126;2023-04-03T09:36:06;9.40;99.90
843;DHT22;407;48.884;9.126;2023-04-03T09:38:32;9.00;99.90
843;DHT22;407;48.884;9.126;2023-04-03T09:41:06;10.60;99.90
843;DHT22;407;48.884;9.126;2023-04-03T09:43:35;9.40;99.90
843;DHT22;407;48.884;9.126;2023-04-03T09:46:25;9.50;99.90
843;DHT22;407;48.884;9.126;2023-04-03T09:48:59;9.40;99.90
843;DHT22;407;48.884;9.126;2023-04-03T09:51:30;9.50;99.90
843;DHT22;407;48.884;9.126;2023-04-03T09:53:57;9.90;99.90
843;DHT22;407;48.884;9.126;2023-04-03T10:01:32;10.00;99.90
843;DHT22;407;48.884;9.126;2023-04-03T10:04:10;9.10;99.90
843;DHT22;407;48.884;9.126;2023-04-03T10:06:45;8.30;99.90
843;DHT22;407;48.884;9.126;2023-04-03T10:09:25;8.30;99.90
843;DHT22;407;48.884;9.126;2023-04-03T10:12:11;8.70;99.90
843;DHT22;407;48.884;9.126;2023-04-03T10:14:57;9.20;99.90
843;DHT22;407;48.884;9.126;2023-04-03T10:20:30;8.30;99.90
843;DHT22;407;48.884;9.126;2023-04-03T10:23:31;7.90;99.90
843;DHT22;407;48.884;9.126;2023-04-03T10:31:46;8.00;99.90
843;DHT22;407;48.884;9.126;2023-04-03T10:34:28;8.10;99.90
843;DHT22;407;48.884;9.126;2023-04-03T10:37:10;8.60;99.90
843;DHT22;407;48.884;9.126;2023-04-03T10:45:31;8.70;99.90
843;DHT22;407;48.884;9.126;2023-04-03T10:51:33;8.70;99.90
843;DHT22;407;48.884;9.126;2023-04-03T10:54:23;9.50;99.90
843;DHT22;407;48.884;9.126;2023-04-03T10:57:00;8.60;99.90
843;DHT22;407;48.884;9.126;2023-04-03T10:59:35;8.60;99.90
843;DHT22;407;48.884;9.126;2023-04-03T11:02:07;8.40;99.90
843;DHT22;407;48.884;9.126;2023-04-03T11:04:39;8.50;99.90
843;DHT22;407;48.884;9.126;2023-04-03T11:07:23;8.60;99.90
843;DHT22;407;48.884;9.126;2023-04-03T11:09:58;8.40;99.90
843;DHT22;407;48.884;9.126;2023-04-03T11:12:48;8.10;99.90
843;DHT22;407;48.884;9.126;2023-04-03T11:15:19;7.90;99.90
843;DHT22;407;48.884;9.126;2023-04-03T11:18:00;8.20;99.90
843;DHT22;407;48.884;9.126;2023-04-03T11:20:31;8.20;99.90
843;DHT22;407;48.884;9.126;2023-04-03T11:23:22;8.10;99.90
843;DHT22;407;48.884;9.126;2023-04-03T11:25:52;8.20;99.90
843;DHT22;407;48.884;9.126;2023-04-03T11:28:18;8.40;99.90
843;DHT22;407;48.884;9.126;2023-04-03T11:36:33;8.10;99.90
843;DHT22;407;48.884;9.126;2023-04-03T11:39:07;8.10;99.90
843;DHT22;407;48.884;9.126;2023-04-03T11:41:35;8.20;99.90
843;DHT22;407;48.884;9.126;2023-04-03T11:44:05;8.30;99.90
843;DHT22;407;48.884;9.126;2023-04-03T11:46:53;7.90;99.90
843;DHT22;407;48.884;9.126;2023-04-03T11:49:57;7.90;99.90
843;DHT22;407;48.884;9.126;2023-04-03T12:40:48;8.30;99.90
843;DHT22;407;48.884;9.126;2023-04-03T12:45:52;8.60;99.90
843;DHT22;407;48.884;9.126;2023-04-03T12:48:25;8.60;99.90
843;DHT22;407;48.884;9.126;2023-04-03T12:50:52;9.00;99.90
843;DHT22;407;48.884;9.126;2023-04-03T12:53:29;9.50;99.90
843;DHT22;407;48.884;9.126;2023-04-03T12:58:44;9.70;99.90
843;DHT22;407;48.884;9.126;2023-04-03T13:01:13;9.60;99.90
843;DHT22;407;48.884;9.126;2023-04-03T13:03:42;9.60;99.90
843;DHT22;407;48.884;9.126;2023-04-03T13:06:19;9.40;99.90
843;DHT22;407;48.884;9.126;2023-04-03T13:08:56;9.30;99.90
843;DHT22;407;48.884;9.126;2023-04-03T13:11:39;8.90;99.90
843;DHT22;407;48.884;9.126;2023-04-03T13:14:16;8.80;99.90
843;DHT22;407;48.884;9.126;2023-04-03T13:16:59;9.00;99.90
843;DHT22;407;48.884;9.126;2023-04-03T13:19:26;9.30;99.90
843;DHT22;407;48.884;9.126;2023-04-03T13:22:07;9.40;99.90
843;DHT22;407;48.884;9.126;2023-04-03T13:24:37;9.50;99.90
843;DHT22;407;48.884;9.126;2023-04-03T13:27:04;9.50;99.90
843;DHT22;407;48.884;9.126;2023-04-03T13:29:33;9.60;99.90
843;DHT22;407;48.884;9.126;2023-04-03T13:32:03;9.50;99.90
843;DHT22;407;48.884;9.126;2023-04-03T13:34:40;9.10;99.90
843;DHT22;407;48.884;9.126;2023-04-03T13:37:06;8.70;99.90
843;DHT22;407;48.884;9.126;2023-04-03T13:39:38;8.70;99.90
843;DHT22;407;48.884;9.126;2023-04-03T13:42:22;8.80;99.90
843;DHT22;407;48.884;9.126;2023-04-03T13:44:48;8.90;99.90
843;DHT22;407;48.884;9.126;2023-04-03T13:47:18;8.90;99.90
843;DHT22;407;48.884;9.126;2023-04-03T13:49:59;9.20;99.90
843;DHT22;407;48.884;9.126;2023-04-03T13:52:53;9.30;99.90
843;DHT22;407;48.884;9.126;2023-04-03T13:55:24;9.20;99.90
843;DHT22;407;48.884;9.126;2023-04-03T13:57:54;9.20;99.90
843;DHT22;407;48.884;9.126;2023-04-03T14:00:33;8.80;99.90
843;DHT22;407;48.884;9.126;2023-04-03T14:02:59;8.80;99.90
843;DHT22;407;48.884;9.126;2023-04-03T14:05:26;8.80;99.90
843;DHT22;407;48.884;9.126;2023-04-03T14:07:53;8.80;99.90
843;DHT22;407;48.884;9.126;2023-04-03T14:10:19;8.70;99.90
843;DHT22;407;48.884;9.126;2023-04-03T14:12:45;8.80;99.90
843;DHT22;407;48.884;9.126;2023-04-03T14:15:23;8.90;99.90
843;DHT22;407;48.884;9.126;2023-04-03T14:17:50;9.80;99.90
843;DHT22;407;48.884;9.126;2023-04-03T14:20:20;8.70;99.90
843;DHT22;407;48.884;9.126;2023-04-03T14:22:47;8.70;99.90
843;DHT22;407;48.884;9.126;2023-04-03T14:25:14;9.40;99.90
843;DHT22;407;48.884;9.126;2023-04-03T14:27:43;8.80;99.90
843;DHT22;407;48.884;9.126;2023-04-03T14:30:21;8.90;99.90
843;DHT22;407;48.884;9.126;2023-04-03T14:32:48;9.20;99.90
843;DHT22;407;48.884;9.126;2023-04-03T14:35:15;9.40;99.90
843;DHT22;407;48.884;9.126;2023-04-03T14:37:42;9.20;99.90
843;DHT22;407;48.884;9.126;2023-04-03T14:40:08;8.80;99.90
843;DHT22;407;48.884;9.126;2023-04-03T14:42:36;8.70;99.90
843;DHT22;407;48.884;9.126;2023-04-03T14:45:05;9.70;99.90
843;DHT22;407;48.884;9.126;2023-04-03T14:47:32;8.70;99.90
843;DHT22;407;48.884;9.126;2023-04-03T14:50:00;10.40;99.90
843;DHT22;407;48.884;9.126;2023-04-03T14:52:32;9.00;99.90
843;DHT22;407;48.884;9.126;2023-04-03T14:54:58;9.10;99.90
843;DHT22;407;48.884;9.126;2023-04-03T14:57:25;8.50;99.90
843;DHT22;407;48.884;9.126;2023-04-03T14:59:51;8.70;99.90
843;DHT22;407;48.884;9.126;2023-04-03T15:02:36;9.20;99.90
843;DHT22;407;48.884;9.126;2023-04-03T15:05:04;8.70;99.90
843;DHT22;407;48.884;9.126;2023-04-03T15:07:34;8.30;99.90
843;DHT22;407;48.884;9.126;2023-04-03T15:10:13;8.30;99.90
843;DHT22;407;48.884;9.126;2023-04-03T15:12:39;8.10;99.90
843;DHT22;407;48.884;9.126;2023-04-03T15:15:06;8.10;99.90
843;DHT22;407;48.884;9.126;2023-04-03T15:17:31;8.30;99.90
843;DHT22;407;48.884;9.126;2023-04-03T15:19:58;8.50;99.90
843;DHT22;407;48.884;9.126;2023-04-03T15:22:24;8.90;99.90
843;DHT22;407;48.884;9.126;2023-04-03T15:24:49;9.30;99.90
843;DHT22;407;48.884;9.126;2023-04-03T15:27:15;9.10;99.90
843;DHT22;407;48.884;9.126;2023-04-03T15:29:42;9.10;99.90
843;DHT22;407;48.884;9.126;2023-04-03T15:32:09;9.80;99.90
843;DHT22;407;48.884;9.126;2023-04-03T15:34:35;8.40;99.90
843;DHT22;407;48.884;9.126;2023-04-03T15:37:01;8.00;99.90
843;DHT22;407;48.884;9.126;2023-04-03T15:39:27;7.70;99.90
843;DHT22;407;48.884;9.126;2023-04-03T15:41:53;7.50;99.90
843;DHT22;407;48.884;9.126;2023-04-03T15:44:20;7.40;99.90
843;DHT22;407;48.884;9.126;2023-04-03T15:46:47;7.50;99.90
843;DHT22;407;48.884;9.126;2023-04-03T15:49:14;8.10;99.90
843;DHT22;407;48.884;9.126;2023-04-03T15:51:40;8.80;99.90
843;DHT22;407;48.884;9.126;2023-04-03T15:54:05;8.50;99.90
843;DHT22;407;48.884;9.126;2023-04-03T15:56:31;8.50;99.90
843;DHT22;407;48.884;9.126;2023-04-03T15:58:57;8.70;99.90
843;DHT22;407;48.884;9.126;2023-04-03T16:01:24;9.00;99.90
843;DHT22;407;48.884;9.126;2023-04-03T16:03:50;9.10;99.90
843;DHT22;407;48.884;9.126;2023-04-03T16:06:17;9.10;99.90
843;DHT22;407;48.884;9.126;2023-04-03T16:08:44;8.50;99.90
843;DHT22;407;48.884;9.126;2023-04-03T16:11:11;8.20;99.90
843;DHT22;407;48.884;9.126;2023-04-03T16:13:36;8.10;99.90
843;DHT22;407;48.884;9.126;2023-04-03T16:16:02;8.00;99.90
843;DHT22;407;48.884;9.126;2023-04-03T16:18:29;7.80;99.90
843;DHT22;407;48.884;9.126;2023-04-03T16:20:55;7.70;99.90
843;DHT22;407;48.884;9.126;2023-04-03T16:23:20;9.20;99.90
843;DHT22;407;48.884;9.126;2023-04-03T16:25:47;7.80;99.90
843;DHT22;407;48.884;9.126;2023-04-03T16:28:13;7.70;99.90
843;DHT22;407;48.884;9.126;2023-04-03T16:30:43;7.70;99.90
843;DHT22;407;48.884;9.126;2023-04-03T16:33:10;7.90;99.90
843;DHT22;407;48.884;9.126;2023-04-03T16:35:36;7.90;99.90
843;DHT22;407;48.884;9.126;2023-04-03T16:38:02;8.00;99.90
843;DHT22;407;48.884;9.126;2023-04-03T16:40:27;8.20;99.90
843;DHT22;407;48.884;9.126;2023-04-03T16:42:54;8.10;99.90
843;DHT22;407;48.884;9.126;2023-04-03T16:45:20;8.10;99.90
843;DHT22;407;48.884;9.126;2023-04-03T16:47:46;8.00;99.90
843;DHT22;407;48.884;9.126;2023-04-03T16:50:11;7.90;99.90
843;DHT22;407;48.884;9.126;2023-04-03T16:52:38;8.90;99.90
843;DHT22;407;48.884;9.126;2023-04-03T16:55:04;7.80;99.90
843;DHT22;407;48.884;9.126;2023-04-03T16:57:30;7.80;99.90
843;DHT22;407;48.884;9.126;2023-04-03T16:59:55;7.80;99.90
843;DHT22;407;48.884;9.126;2023-04-03T17:02:22;8.50;99.90
843;DHT22;407;48.884;9.126;2023-04-03T17:04:52;7.80;99.90
843;DHT22;407;48.884;9.126;2023-04-03T17:07:22;8.10;99.90
843;DHT22;407;48.884;9.126;2023-04-03T17:09:48;9.00;99.90
843;DHT22;407;48.884;9.126;2023-04-03T17:12:15;8.00;99.90
843;DHT22;407;48.884;9.126;2023-04-03T17:14:40;8.60;99.90
843;DHT22;407;48.884;9.126;2023-04-03T17:17:06;9.20;99.90
843;DHT22;407;48.884;9.126;2023-04-03T17:19:33;7.90;99.90
843;DHT22;407;48.884;9.126;2023-04-03T17:21:59;7.90;99.90
843;DHT22;407;48.884;9.126;2023-04-03T17:24:26;7.70;99.90
843;DHT22;407;48.884;9.126;2023-04-03T17:26:52;7.70;99.90
843;DHT22;407;48.884;9.126;2023-04-03T17:29:17;7.60;99.90
843;DHT22;407;48.884;9.126;2023-04-03T17:31:43;7.40;99.90
843;DHT22;407;48.884;9.126;2023-04-03T17:34:09;7.40;99.90
843;DHT22;407;48.884;9.126;2023-04-03T17:36:37;7.10;99.90
843;DHT22;407;48.884;9.126;2023-04-03T17:39:03;8.20;99.90
843;DHT22;407;48.884;9.126;2023-04-03T17:41:29;7.20;99.90
843;DHT22;407;48.884;9.126;2023-04-03T17:43:54;6.80;99.90
843;DHT22;407;48.884;9.126;2023-04-03T17:46:23;6.70;99.90
843;DHT22;407;48.884;9.126;2023-04-03T17:48:50;8.00;99.90
843;DHT22;407;48.884;9.126;2023-04-03T17:51:19;6.80;99.90
843;DHT22;407;48.884;9.126;2023-04-03T17:53:46;7.70;99.90
843;DHT22;407;48.884;9.126;2023-04-03T17:56:18;6.70;99.90
843;DHT22;407;48.884;9.126;2023-04-03T17:58:44;6.70;99.90
843;DHT22;407;48.884;9.126;2023-04-03T18:01:18;6.70;99.90
843;DHT22;407;48.884;9.126;2023-04-03T18:03:45;6.80;99.90
843;DHT22;407;48.884;9.126;2023-04-03T18:06:16;6.80;99.90
843;DHT22;407;48.884;9.126;2023-04-03T18:08:54;6.70;99.90
843;DHT22;407;48.884;9.126;2023-04-03T18:11:25;6.70;99.90
843;DHT22;407;48.884;9.126;2023-04-03T18:13:52;6.70;99.90
843;DHT22;407;48.884;9.126;2023-04-03T18:16:18;6.70;99.90
843;DHT22;407;48.884;9.126;2023-04-03T18:18:44;6.70;99.90
843;DHT22;407;48.884;9.126;2023-04-03T18:21:11;7.60;99.90
843;DHT22;407;48.884;9.126;2023-04-03T18:23:43;6.70;99.90
843;DHT22;407;48.884;9.126;2023-04-03T18:26:11;6.70;99.90
843;DHT22;407;48.884;9.126;2023-04-03T18:28:39;6.50;99.90
843;DHT22;407;48.884;9.126;2023-04-03T18:31:07;6.40;99.90
843;DHT22;407;48.884;9.126;2023-04-03T18:33:35;6.40;99.90
843;DHT22;407;48.884;9.126;2023-04-03T18:36:02;6.10;99.90
843;DHT22;407;48.884;9.126;2023-04-03T18:38:28;6.00;99.90
843;DHT22;407;48.884;9.126;2023-04-03T18:40:54;7.80;99.90
843;DHT22;407;48.884;9.126;2023-04-03T18:43:20;5.90;99.90
843;DHT22;407;48.884;9.126;2023-04-03T18:45:45;5.90;99.90